createdAt,value
2019-01-24T00:00:35.495Z,94.45
2019-01-24T00:01:35.353Z,94.55
2019-01-24T00:02:35.215Z,94.36
2019-01-24T00:03:35.071Z,94.27
2019-01-24T00:04:34.929Z,94.36
2019-01-24T00:05:34.787Z,94.36
2019-01-24T00:06:34.645Z,93.61
2019-01-24T00:07:34.508Z,93.51
2019-01-24T00:08:34.363Z,93.61
2019-01-24T00:09:34.222Z,93.42
2019-01-24T00:10:34.080Z,93.32
2019-01-24T00:11:33.939Z,93.04
2019-01-24T00:12:33.796Z,92.85
2019-01-24T00:13:33.655Z,93.13
2019-01-24T00:14:33.512Z,93.42
2019-01-24T00:15:33.372Z,93.70
2019-01-24T00:16:33.229Z,93.98
2019-01-24T00:17:33.088Z,94.36
2019-01-24T00:18:32.979Z,94.55
2019-01-24T00:19:32.812Z,94.83
2019-01-24T00:20:32.662Z,95.30
2019-01-24T00:21:32.521Z,95.77
2019-01-24T00:22:32.381Z,94.64
2019-01-24T00:23:32.236Z,94.27
2019-01-24T00:24:32.093Z,94.45
2019-01-24T00:25:31.991Z,94.45
2019-01-24T00:26:31.810Z,93.32
2019-01-24T00:27:31.670Z,93.04
2019-01-24T00:28:31.528Z,92.85
2019-01-24T00:29:31.387Z,92.95
2019-01-24T00:30:31.244Z,92.38
2019-01-24T00:31:31.102Z,91.72
2019-01-24T00:32:30.961Z,90.88
2019-01-24T00:33:30.819Z,90.50
2019-01-24T00:34:30.677Z,90.69
2019-01-24T00:35:30.535Z,91.16
2019-01-24T00:36:30.392Z,91.16
2019-01-24T00:37:30.250Z,91.44
2019-01-24T00:38:30.106Z,91.06
2019-01-24T00:39:29.967Z,92.00
2019-01-24T00:40:29.824Z,92.00
2019-01-24T00:41:29.681Z,91.44
2019-01-24T00:42:29.542Z,92.19
2019-01-24T00:43:29.397Z,92.10
2019-01-24T00:44:29.253Z,92.00
2019-01-24T00:45:29.113Z,92.10
2019-01-24T00:46:28.970Z,92.00
2019-01-24T00:47:28.829Z,92.95
2019-01-24T00:48:28.686Z,92.95
2019-01-24T00:49:28.544Z,92.66
2019-01-24T00:50:28.401Z,92.95
2019-01-24T00:51:28.262Z,93.13
2019-01-24T00:52:28.116Z,93.04
2019-01-24T00:53:27.976Z,93.61
2019-01-24T00:54:27.832Z,93.04
2019-01-24T00:55:27.690Z,93.23
2019-01-24T00:56:27.549Z,92.85
2019-01-24T00:57:27.406Z,93.23
2019-01-24T00:58:27.263Z,92.57
2019-01-24T00:59:27.123Z,92.76
2019-01-24T01:00:26.979Z,92.29
2019-01-24T01:01:26.838Z,91.82
2019-01-24T01:02:26.699Z,91.91
2019-01-24T01:03:26.555Z,92.38
2019-01-24T01:04:29.745Z,92.29
2019-01-24T01:05:26.273Z,92.29
2019-01-24T01:06:26.129Z,92.66
2019-01-24T01:07:25.986Z,92.76
2019-01-24T01:08:25.843Z,92.29
2019-01-24T01:09:25.702Z,92.29
2019-01-24T01:10:25.559Z,92.10
2019-01-24T01:11:25.417Z,92.38
2019-01-24T01:12:25.275Z,92.85
2019-01-24T01:13:25.132Z,92.85
2019-01-24T01:14:24.990Z,92.85
2019-01-24T01:15:24.848Z,93.04
2019-01-24T01:16:24.706Z,93.23
2019-01-24T01:17:24.579Z,93.04
2019-01-24T01:18:24.423Z,92.76
2019-01-24T01:19:24.280Z,93.61
2019-01-24T01:20:24.137Z,94.27
2019-01-24T01:21:23.998Z,94.17
2019-01-24T01:22:23.852Z,94.27
2019-01-24T01:23:23.710Z,94.45
2019-01-24T01:24:23.570Z,94.27
2019-01-24T01:25:23.424Z,94.55
2019-01-24T01:26:23.284Z,94.45
2019-01-24T01:27:23.141Z,93.32
2019-01-24T01:28:23.000Z,93.04
2019-01-24T01:29:22.858Z,93.61
2019-01-24T01:30:22.715Z,93.79
2019-01-24T01:31:22.574Z,94.36
2019-01-24T01:32:22.428Z,94.17
2019-01-24T01:33:22.288Z,94.55
2019-01-24T01:34:22.145Z,94.64
2019-01-24T01:35:22.005Z,94.64
2019-01-24T01:36:21.861Z,94.45
2019-01-24T01:37:21.718Z,93.61
2019-01-24T01:38:21.577Z,93.61
2019-01-24T01:39:21.437Z,93.04
2019-01-24T01:40:21.294Z,92.66
2019-01-24T01:41:21.150Z,92.66
2019-01-24T01:42:21.009Z,93.61
2019-01-24T01:43:20.867Z,93.13
2019-01-24T01:44:20.726Z,93.04
2019-01-24T01:45:20.586Z,93.23
2019-01-24T01:46:20.444Z,93.70
2019-01-24T01:47:20.299Z,94.55
2019-01-24T01:48:20.156Z,94.36
2019-01-24T01:49:20.013Z,95.40
2019-01-24T01:50:19.874Z,94.74
2019-01-24T01:51:19.730Z,94.55
2019-01-24T01:52:19.587Z,95.11
2019-01-24T01:53:19.445Z,94.83
2019-01-24T01:54:19.303Z,94.83
2019-01-24T01:55:19.163Z,94.55
2019-01-24T01:56:19.019Z,94.55
2019-01-24T01:57:18.878Z,94.83
2019-01-24T01:58:18.735Z,94.74
2019-01-24T01:59:18.595Z,94.17
2019-01-24T02:00:18.451Z,94.83
2019-01-24T02:01:18.307Z,94.74
2019-01-24T02:02:18.169Z,94.27
2019-01-24T02:03:18.023Z,94.64
2019-01-24T02:04:17.881Z,95.11
2019-01-24T02:05:17.742Z,95.40
2019-01-24T02:06:17.597Z,94.64
2019-01-24T02:07:17.456Z,94.36
2019-01-24T02:08:17.310Z,94.36
2019-01-24T02:09:17.171Z,94.64
2019-01-24T02:10:17.028Z,94.08
2019-01-24T02:11:16.887Z,93.70
2019-01-24T02:12:16.743Z,93.61
2019-01-24T02:13:16.603Z,93.42
2019-01-24T02:14:16.460Z,93.70
2019-01-24T02:15:16.320Z,94.45
2019-01-24T02:16:16.175Z,93.98
2019-01-24T02:17:16.034Z,93.98
2019-01-24T02:18:15.896Z,93.98
2019-01-24T02:19:15.749Z,94.17
2019-01-24T02:20:15.608Z,94.64
2019-01-24T02:21:15.466Z,94.45
2019-01-24T02:22:15.325Z,94.45
2019-01-24T02:23:15.181Z,94.55
2019-01-24T02:24:15.039Z,94.64
2019-01-24T02:25:14.898Z,94.36
2019-01-24T02:26:14.753Z,94.27
2019-01-24T02:27:14.612Z,94.27
2019-01-24T02:28:14.468Z,94.64
2019-01-24T02:29:14.328Z,94.55
2019-01-24T02:30:14.188Z,94.74
2019-01-24T02:31:14.045Z,94.64
2019-01-24T02:32:13.901Z,94.55
2019-01-24T02:33:13.759Z,94.74
2019-01-24T02:34:13.616Z,94.93
2019-01-24T02:35:13.474Z,94.55
2019-01-24T02:36:13.332Z,94.08
2019-01-24T02:37:13.188Z,93.98
2019-01-24T02:38:13.059Z,93.98
2019-01-24T02:39:12.905Z,94.27
2019-01-24T02:40:12.762Z,93.98
2019-01-24T02:41:12.618Z,93.75
2019-01-24T02:42:12.480Z,94.17
2019-01-24T02:43:12.334Z,93.61
2019-01-24T02:44:12.191Z,93.98
2019-01-24T02:45:12.049Z,94.55
2019-01-24T02:46:11.910Z,94.27
2019-01-24T02:47:11.765Z,94.17
2019-01-24T02:48:19.607Z,94.27
2019-01-24T02:50:04.279Z,94.27
2019-01-24T02:51:04.098Z,93.79
2019-01-24T02:52:56.745Z,94.69
2019-01-24T02:53:56.596Z,93.98
2019-01-24T02:55:49.224Z,94.08
2019-01-24T02:56:49.076Z,94.17
2019-01-24T02:58:41.710Z,93.89
2019-01-24T02:59:41.561Z,94.36
2019-01-24T03:01:34.195Z,93.79
2019-01-24T03:02:34.045Z,93.70
2019-01-24T03:04:26.701Z,92.38
2019-01-24T03:05:26.525Z,92.47
2019-01-24T03:07:20.001Z,92.57
2019-01-24T03:08:19.850Z,92.47
2019-01-24T03:10:12.486Z,91.63
2019-01-24T03:11:12.328Z,91.35
2019-01-24T03:13:04.953Z,92.00
2019-01-24T03:14:04.805Z,91.44
2019-01-24T03:15:57.433Z,92.33
2019-01-24T03:16:57.284Z,92.62
2019-01-24T03:18:49.912Z,92.90
2019-01-24T03:19:49.766Z,92.90
2019-01-24T03:21:42.386Z,93.46
2019-01-24T03:22:42.239Z,92.99
2019-01-24T03:24:34.870Z,92.99
2019-01-24T03:25:34.725Z,93.18
2019-01-24T03:27:27.354Z,93.46
2019-01-24T03:28:27.204Z,93.46
2019-01-24T03:30:20.014Z,94.50
2019-01-24T03:31:19.778Z,94.22
2019-01-24T03:33:12.403Z,95.07
2019-01-24T03:34:12.253Z,93.46
2019-01-24T03:36:04.882Z,93.46
2019-01-24T03:37:04.733Z,93.46
2019-01-24T03:38:57.361Z,93.46
2019-01-24T03:39:57.207Z,93.56
2019-01-24T03:41:49.837Z,93.56
2019-01-24T03:42:49.688Z,92.99
2019-01-24T03:44:42.326Z,92.99
2019-01-24T03:45:42.168Z,93.37
2019-01-24T03:47:34.798Z,93.46
2019-01-24T03:48:34.640Z,93.56
2019-01-24T03:50:27.265Z,94.22
2019-01-24T03:51:27.120Z,93.94
2019-01-24T03:53:19.745Z,93.56
2019-01-24T03:54:19.596Z,93.46
2019-01-24T03:55:19.458Z,93.56
2019-01-24T03:56:19.312Z,93.56
2019-01-24T03:57:19.166Z,93.84
2019-01-24T03:58:19.026Z,93.75
2019-01-24T03:59:18.890Z,93.56
2019-01-24T04:00:18.747Z,94.12
2019-01-24T04:01:18.598Z,94.22
2019-01-24T04:02:18.456Z,94.50
2019-01-24T04:03:18.310Z,94.50
2019-01-24T04:04:18.175Z,94.88
2019-01-24T04:05:18.026Z,95.54
2019-01-24T04:06:17.887Z,94.78
2019-01-24T04:07:17.741Z,95.16
2019-01-24T04:08:17.597Z,94.78
2019-01-24T04:09:17.457Z,94.59
2019-01-24T04:10:17.314Z,94.31
2019-01-24T04:11:17.170Z,94.41
2019-01-24T04:12:17.027Z,94.41
2019-01-24T04:13:16.890Z,93.84
2019-01-24T04:14:16.743Z,94.50
2019-01-24T04:15:16.598Z,94.69
2019-01-24T04:16:16.462Z,94.41
2019-01-24T04:17:16.317Z,95.16
2019-01-24T04:18:16.177Z,94.50
2019-01-24T04:19:16.031Z,94.22
2019-01-24T04:20:15.885Z,93.37
2019-01-24T04:21:15.744Z,92.90
2019-01-24T04:22:15.606Z,92.99
2019-01-24T04:23:15.457Z,93.56
2019-01-24T04:24:15.313Z,94.03
2019-01-24T04:25:15.172Z,94.59
2019-01-24T04:26:15.031Z,94.97
2019-01-24T04:27:14.887Z,95.25
2019-01-24T04:28:14.743Z,95.35
2019-01-24T04:29:14.602Z,95.91
2019-01-24T04:30:14.457Z,94.88
2019-01-24T04:31:14.315Z,94.69
2019-01-24T04:32:14.174Z,94.78
2019-01-24T04:33:14.030Z,94.69
2019-01-24T04:34:13.887Z,94.12
2019-01-24T04:35:19.699Z,94.22
2019-01-24T04:36:14.436Z,95.16
2019-01-24T04:37:13.457Z,94.69
2019-01-24T04:38:13.314Z,94.59
2019-01-24T04:39:13.211Z,94.50
2019-01-24T04:40:13.030Z,93.94
2019-01-24T04:41:12.884Z,93.65
2019-01-24T04:42:12.744Z,94.50
2019-01-24T04:43:12.601Z,94.31
2019-01-24T04:44:12.472Z,93.84
2019-01-24T04:45:12.315Z,94.12
2019-01-24T04:46:12.172Z,94.59
2019-01-24T04:47:12.028Z,94.59
2019-01-24T04:48:11.887Z,94.97
2019-01-24T04:49:11.743Z,94.41
2019-01-24T04:50:11.603Z,94.31
2019-01-24T04:51:11.457Z,95.25
2019-01-24T04:52:11.322Z,94.97
2019-01-24T04:53:11.176Z,95.07
2019-01-24T04:54:11.032Z,95.82
2019-01-24T04:55:10.887Z,95.91
2019-01-24T04:56:10.749Z,94.78
2019-01-24T04:57:10.604Z,96.01
2019-01-24T04:58:10.461Z,95.73
2019-01-24T04:59:10.318Z,95.63
2019-01-24T05:00:10.174Z,95.82
2019-01-24T05:01:10.031Z,95.16
2019-01-24T05:02:09.893Z,95.82
2019-01-24T05:03:09.745Z,94.69
2019-01-24T05:04:09.602Z,95.25
2019-01-24T05:05:09.460Z,94.50
2019-01-24T05:06:09.318Z,94.69
2019-01-24T05:07:09.174Z,94.88
2019-01-24T05:08:09.036Z,95.54
2019-01-24T05:09:08.889Z,95.25
2019-01-24T05:10:08.756Z,95.25
2019-01-24T05:11:08.605Z,95.44
2019-01-24T05:12:08.459Z,95.07
2019-01-24T05:13:08.321Z,95.63
2019-01-24T05:14:08.180Z,95.82
2019-01-24T05:15:08.032Z,95.91
2019-01-24T05:16:07.888Z,94.78
2019-01-24T05:17:07.746Z,94.78
2019-01-24T05:18:07.607Z,94.78
2019-01-24T05:19:07.465Z,95.07
2019-01-24T05:20:07.321Z,94.12
2019-01-24T05:21:07.177Z,94.12
2019-01-24T05:22:07.035Z,94.12
2019-01-24T05:23:06.893Z,94.03
2019-01-24T05:24:06.747Z,93.46
2019-01-24T05:25:06.608Z,93.09
2019-01-24T05:26:06.462Z,93.65
2019-01-24T05:27:06.319Z,94.22
2019-01-24T05:28:06.177Z,94.50
2019-01-24T05:29:06.032Z,94.50
2019-01-24T05:30:05.892Z,94.50
2019-01-24T05:31:05.747Z,95.35
2019-01-24T05:32:05.650Z,96.20
2019-01-24T05:33:05.471Z,95.35
2019-01-24T05:34:05.319Z,95.82
2019-01-24T05:35:05.185Z,95.07
2019-01-24T05:36:05.031Z,94.88
2019-01-24T05:37:04.895Z,94.88
2019-01-24T05:38:04.746Z,94.69
2019-01-24T05:39:04.604Z,94.41
2019-01-24T05:40:04.466Z,94.41
2019-01-24T05:41:04.347Z,94.12
2019-01-24T05:42:04.176Z,93.56
2019-01-24T05:43:04.032Z,93.84
2019-01-24T05:44:03.894Z,93.65
2019-01-24T05:45:03.746Z,93.18
2019-01-24T05:46:03.604Z,93.94
2019-01-24T05:47:03.462Z,93.37
2019-01-24T05:48:03.318Z,93.56
2019-01-24T05:49:03.175Z,93.65
2019-01-24T05:50:03.032Z,94.12
2019-01-24T05:51:02.888Z,94.12
2019-01-24T05:52:02.760Z,94.22
2019-01-24T05:53:02.610Z,93.94
2019-01-24T05:54:02.459Z,94.12
2019-01-24T05:55:02.316Z,94.22
2019-01-24T05:56:02.175Z,94.41
2019-01-24T05:57:02.030Z,93.65
2019-01-24T05:58:01.885Z,94.31
2019-01-24T05:59:01.742Z,94.41
2019-01-24T06:00:01.599Z,94.22
2019-01-24T06:01:02.360Z,94.59
2019-01-24T06:02:01.312Z,94.50
2019-01-24T06:03:01.171Z,94.50
2019-01-24T06:04:01.027Z,94.88
2019-01-24T06:05:00.884Z,95.07
2019-01-24T06:06:00.742Z,95.73
2019-01-24T06:07:00.600Z,95.82
2019-01-24T06:08:00.455Z,95.82
2019-01-24T06:09:00.311Z,96.10
2019-01-24T06:10:00.229Z,96.20
2019-01-24T06:11:00.026Z,95.82
2019-01-24T06:11:59.881Z,95.91
2019-01-24T06:12:59.739Z,96.01
2019-01-24T06:13:59.598Z,95.73
2019-01-24T06:14:59.455Z,96.48
2019-01-24T06:15:59.310Z,96.48
2019-01-24T06:16:59.170Z,96.76
2019-01-24T06:17:59.027Z,96.57
2019-01-24T06:18:58.884Z,96.01
2019-01-24T06:19:58.741Z,95.91
2019-01-24T06:20:58.597Z,96.10
2019-01-24T06:21:58.456Z,95.82
2019-01-24T06:22:58.311Z,96.20
2019-01-24T06:23:58.174Z,95.91
2019-01-24T06:24:58.026Z,96.10
2019-01-24T06:25:57.883Z,96.10
2019-01-24T06:26:57.739Z,96.01
2019-01-24T06:27:57.599Z,95.63
2019-01-24T06:28:57.454Z,95.91
2019-01-24T06:29:57.311Z,95.25
2019-01-24T06:30:57.169Z,95.35
2019-01-24T06:31:57.025Z,95.63
2019-01-24T06:32:56.887Z,95.54
2019-01-24T06:33:56.740Z,94.50
2019-01-24T06:34:56.599Z,94.88
2019-01-24T06:35:56.454Z,94.78
2019-01-24T06:36:56.315Z,94.78
2019-01-24T06:37:56.183Z,94.12
2019-01-24T06:38:56.027Z,94.97
2019-01-24T06:39:55.885Z,94.97
2019-01-24T06:40:55.767Z,94.50
2019-01-24T06:41:55.600Z,93.84
2019-01-24T06:42:55.456Z,94.22
2019-01-24T06:43:55.314Z,94.22
2019-01-24T06:44:55.171Z,94.12
2019-01-24T06:45:55.029Z,94.22
2019-01-24T06:46:54.897Z,94.50
2019-01-24T06:47:54.741Z,94.50
2019-01-24T06:48:54.599Z,94.12
2019-01-24T06:49:54.456Z,94.69
2019-01-24T06:50:54.312Z,94.31
2019-01-24T06:51:54.169Z,94.31
2019-01-24T06:52:54.027Z,94.12
2019-01-24T06:53:53.899Z,94.22
2019-01-24T06:54:53.743Z,94.41
2019-01-24T06:55:53.598Z,94.78
2019-01-24T06:56:53.457Z,94.88
2019-01-24T06:57:53.311Z,94.69
2019-01-24T06:58:53.167Z,94.78
2019-01-24T06:59:53.025Z,94.50
2019-01-24T07:00:52.884Z,94.78
2019-01-24T07:01:52.739Z,95.16
2019-01-24T07:02:52.597Z,95.25
2019-01-24T07:03:52.455Z,95.16
2019-01-24T07:04:52.316Z,94.31
2019-01-24T07:05:55.492Z,94.12
2019-01-24T07:06:52.025Z,94.22
2019-01-24T07:07:51.883Z,94.41
2019-01-24T07:08:51.742Z,95.35
2019-01-24T07:09:51.599Z,95.35
2019-01-24T07:10:51.456Z,95.82
2019-01-24T07:11:51.312Z,96.01
2019-01-24T07:12:51.171Z,94.69
2019-01-24T07:13:51.026Z,94.69
2019-01-24T07:14:50.884Z,93.94
2019-01-24T07:15:50.746Z,94.22
2019-01-24T07:16:50.607Z,94.12
2019-01-24T07:17:50.470Z,94.12
2019-01-24T07:18:50.311Z,94.12
2019-01-24T07:19:50.167Z,94.12
2019-01-24T07:20:50.026Z,94.50
2019-01-24T07:21:49.884Z,94.88
2019-01-24T07:22:49.744Z,94.50
2019-01-24T07:23:49.596Z,94.12
2019-01-24T07:24:49.455Z,94.78
2019-01-24T07:25:49.313Z,94.69
2019-01-24T07:26:49.167Z,94.69
2019-01-24T07:27:49.075Z,94.88
2019-01-24T07:28:48.884Z,95.35
2019-01-24T07:29:48.742Z,95.07
2019-01-24T07:30:48.597Z,95.25
2019-01-24T07:31:48.486Z,95.35
2019-01-24T07:32:48.313Z,94.93
2019-01-24T07:33:48.173Z,95.16
2019-01-24T07:34:48.025Z,95.30
2019-01-24T07:35:47.883Z,95.21
2019-01-24T07:36:47.742Z,95.68
2019-01-24T07:37:47.597Z,95.16
2019-01-24T07:38:47.454Z,94.69
2019-01-24T07:39:47.312Z,94.93
2019-01-24T07:40:47.168Z,95.21
2019-01-24T07:41:47.026Z,95.11
2019-01-24T07:42:46.886Z,95.21
2019-01-24T07:43:46.742Z,95.11
2019-01-24T07:44:46.599Z,94.83
2019-01-24T07:45:46.465Z,94.74
2019-01-24T07:46:46.313Z,94.83
2019-01-24T07:47:46.170Z,94.55
2019-01-24T07:48:46.027Z,94.36
2019-01-24T07:49:45.886Z,93.89
2019-01-24T07:50:45.740Z,94.36
2019-01-24T07:51:45.598Z,93.51
2019-01-24T07:52:45.458Z,93.79
2019-01-24T07:53:45.314Z,93.51
2019-01-24T07:54:45.186Z,93.42
2019-01-24T07:55:45.032Z,93.13
2019-01-24T07:56:44.886Z,93.23
2019-01-24T07:57:44.745Z,92.95
2019-01-24T07:58:44.601Z,93.13
2019-01-24T07:59:44.460Z,94.27
2019-01-24T08:00:44.318Z,94.08
2019-01-24T08:01:44.174Z,93.79
2019-01-24T08:02:44.031Z,93.98
2019-01-24T08:03:43.888Z,93.42
2019-01-24T08:04:43.748Z,93.70
2019-01-24T08:05:43.604Z,94.27
2019-01-24T08:06:43.463Z,94.27
2019-01-24T08:07:43.319Z,94.74
2019-01-24T08:08:43.181Z,95.02
2019-01-24T08:09:43.037Z,94.93
2019-01-24T08:10:43.947Z,94.55
2019-01-24T08:11:42.749Z,94.64
2019-01-24T08:12:42.609Z,94.55
2019-01-24T08:13:42.467Z,94.45
2019-01-24T08:14:42.322Z,93.98
2019-01-24T08:15:42.181Z,94.17
2019-01-24T08:16:42.040Z,94.83
2019-01-24T08:17:41.898Z,95.02
2019-01-24T08:18:41.792Z,94.55
2019-01-24T08:19:41.614Z,94.27
2019-01-24T08:20:41.512Z,93.61
2019-01-24T08:21:41.329Z,93.61
2019-01-24T08:22:41.184Z,93.23
2019-01-24T08:23:41.043Z,93.13
2019-01-24T08:24:40.902Z,92.66
2019-01-24T08:25:40.759Z,92.85
2019-01-24T08:26:40.615Z,92.85
2019-01-24T08:27:40.479Z,92.85
2019-01-24T08:28:40.332Z,93.04
2019-01-24T08:29:40.190Z,92.85
2019-01-24T08:30:40.046Z,92.47
2019-01-24T08:31:39.905Z,92.85
2019-01-24T08:32:39.763Z,92.19
2019-01-24T08:33:39.621Z,92.19
2019-01-24T08:34:39.479Z,92.00
2019-01-24T08:35:39.341Z,92.19
2019-01-24T08:36:39.196Z,91.44
2019-01-24T08:37:39.051Z,90.31
2019-01-24T08:38:38.911Z,89.28
2019-01-24T08:39:38.767Z,89.65
2019-01-24T08:40:38.626Z,90.78
2019-01-24T08:41:38.485Z,91.06
2019-01-24T08:42:38.341Z,90.12
2019-01-24T08:43:38.200Z,89.94
2019-01-24T08:44:38.102Z,88.90
2019-01-24T08:45:37.917Z,89.56
2019-01-24T08:46:37.778Z,90.03
2019-01-24T08:47:37.633Z,89.65
2019-01-24T08:48:37.492Z,89.94
2019-01-24T08:49:37.350Z,89.94
2019-01-24T08:50:37.212Z,89.75
2019-01-24T08:51:37.069Z,89.28
2019-01-24T08:52:36.929Z,87.39
2019-01-24T08:53:36.792Z,87.02
2019-01-24T08:54:36.643Z,86.92
2019-01-24T08:55:36.502Z,87.49
2019-01-24T08:56:36.362Z,87.30
2019-01-24T08:57:36.221Z,87.20
2019-01-24T08:58:36.079Z,86.17
2019-01-24T08:59:35.939Z,85.32
2019-01-24T09:00:35.799Z,85.79
2019-01-24T09:01:35.655Z,85.88
2019-01-24T09:02:35.515Z,85.79
2019-01-24T09:03:35.372Z,86.54
2019-01-24T09:04:35.231Z,86.45
2019-01-24T09:05:35.092Z,85.51
2019-01-24T09:06:34.948Z,85.04
2019-01-24T09:07:34.807Z,84.94
2019-01-24T09:08:34.674Z,85.51
2019-01-24T09:09:34.525Z,85.79
2019-01-24T09:10:34.385Z,85.41
2019-01-24T09:11:34.241Z,85.32
2019-01-24T09:12:34.102Z,85.22
2019-01-24T09:13:33.962Z,85.41
2019-01-24T09:14:33.819Z,85.51
2019-01-24T09:15:33.678Z,85.32
2019-01-24T09:16:33.538Z,84.28
2019-01-24T09:17:33.396Z,84.28
2019-01-24T09:18:33.257Z,83.91
2019-01-24T09:19:33.114Z,83.91
2019-01-24T09:20:32.971Z,83.81
2019-01-24T09:21:32.831Z,83.62
2019-01-24T09:22:32.698Z,83.53
2019-01-24T09:23:32.547Z,83.53
2019-01-24T09:24:32.408Z,83.62
2019-01-24T09:25:32.267Z,83.72
2019-01-24T09:26:32.123Z,83.62
2019-01-24T09:27:32.004Z,83.86
2019-01-24T09:28:31.842Z,82.82
2019-01-24T09:29:31.701Z,82.44
2019-01-24T09:30:31.559Z,81.69
2019-01-24T09:31:31.416Z,81.63
2019-01-24T09:32:31.276Z,80.69
2019-01-24T09:33:31.139Z,79.09
2019-01-24T09:34:30.998Z,77.67
2019-01-24T09:35:30.857Z,76.68
2019-01-24T09:36:30.718Z,75.26
2019-01-24T09:37:30.577Z,74.04
2019-01-24T09:38:30.437Z,72.81
2019-01-24T09:39:30.298Z,71.68
2019-01-24T09:40:30.163Z,70.92
2019-01-24T09:41:30.024Z,69.79
2019-01-24T09:42:29.884Z,70.20
2019-01-24T09:43:29.746Z,69.92
2019-01-24T09:44:29.610Z,69.64
2019-01-24T09:45:29.470Z,69.17
2019-01-24T09:46:29.332Z,68.04
2019-01-24T09:47:29.200Z,67.00
2019-01-24T09:48:29.057Z,67.66
2019-01-24T09:49:28.920Z,68.13
2019-01-24T09:50:28.781Z,67.94
2019-01-24T09:51:28.644Z,67.57
2019-01-24T09:52:28.508Z,67.94
2019-01-24T09:53:28.368Z,67.57
2019-01-24T09:54:28.230Z,67.47
2019-01-24T09:55:28.095Z,66.71
2019-01-24T09:56:27.958Z,66.90
2019-01-24T09:57:27.822Z,66.96
2019-01-24T09:58:27.683Z,67.19
2019-01-24T09:59:27.546Z,66.58
2019-01-24T10:00:27.410Z,66.58
2019-01-24T10:01:27.272Z,66.96
2019-01-24T10:02:27.136Z,66.77
2019-01-24T10:03:26.997Z,67.15
2019-01-24T10:04:26.863Z,67.72
2019-01-24T10:05:26.725Z,67.97
2019-01-24T10:06:26.586Z,68.85
2019-01-24T10:07:26.449Z,69.79
2019-01-24T10:08:26.314Z,69.32
2019-01-24T10:09:26.175Z,69.32
2019-01-24T10:10:26.040Z,69.89
2019-01-24T10:11:25.899Z,69.70
2019-01-24T10:12:25.762Z,69.89
2019-01-24T10:13:25.628Z,69.32
2019-01-24T10:14:25.491Z,68.47
2019-01-24T10:15:25.349Z,68.41
2019-01-24T10:16:25.212Z,67.66
2019-01-24T10:17:25.076Z,66.43
2019-01-24T10:18:24.938Z,66.15
2019-01-24T10:19:24.808Z,65.77
2019-01-24T10:20:24.665Z,65.20
2019-01-24T10:21:24.527Z,65.58
2019-01-24T10:22:24.392Z,64.73
2019-01-24T10:23:24.257Z,64.83
2019-01-24T10:24:24.123Z,64.45
2019-01-24T10:25:23.984Z,63.79
2019-01-24T10:26:23.845Z,63.89
2019-01-24T10:27:23.710Z,64.45
2019-01-24T10:28:23.575Z,64.54
2019-01-24T10:29:23.440Z,64.26
2019-01-24T10:30:23.304Z,63.98
2019-01-24T10:31:23.166Z,63.89
2019-01-24T10:32:23.033Z,63.89
2019-01-24T10:33:22.898Z,63.89
2019-01-24T10:34:22.763Z,64.17
2019-01-24T10:35:22.630Z,64.07
2019-01-24T10:36:22.490Z,64.01
2019-01-24T10:37:22.355Z,64.01
2019-01-24T10:38:22.220Z,63.63
2019-01-24T10:39:22.087Z,63.16
2019-01-24T10:40:21.951Z,62.88
2019-01-24T10:41:21.818Z,62.31
2019-01-24T10:42:21.681Z,62.31
2019-01-24T10:43:21.547Z,61.18
2019-01-24T10:44:21.411Z,61.65
2019-01-24T10:45:21.279Z,61.65
2019-01-24T10:46:21.142Z,60.89
2019-01-24T10:47:21.007Z,60.05
2019-01-24T10:48:20.875Z,60.24
2019-01-24T10:49:20.743Z,60.52
2019-01-24T10:50:20.605Z,61.15
2019-01-24T10:51:20.474Z,62.18
2019-01-24T10:52:20.338Z,62.59
2019-01-24T10:53:20.220Z,61.99
2019-01-24T10:54:20.068Z,61.52
2019-01-24T10:55:19.934Z,62.28
2019-01-24T10:56:19.801Z,62.84
2019-01-24T10:57:19.670Z,62.94
2019-01-24T10:58:19.530Z,63.26
2019-01-24T10:59:19.398Z,63.26
2019-01-24T11:00:19.261Z,63.07
2019-01-24T11:01:19.126Z,63.26
2019-01-24T11:02:18.993Z,62.50
2019-01-24T11:03:18.858Z,62.02
2019-01-24T11:04:18.723Z,62.02
2019-01-24T11:05:18.589Z,62.69
2019-01-24T11:06:18.453Z,62.78
2019-01-24T11:07:18.319Z,62.88
2019-01-24T11:08:18.185Z,62.21
2019-01-24T11:09:18.051Z,62.12
2019-01-24T11:10:17.915Z,62.21
2019-01-24T11:11:17.785Z,61.96
2019-01-24T11:12:17.647Z,62.06
2019-01-24T11:13:17.513Z,61.68
2019-01-24T11:14:17.380Z,61.02
2019-01-24T11:15:17.244Z,60.99
2019-01-24T11:16:17.111Z,61.49
2019-01-24T11:17:16.976Z,61.18
2019-01-24T11:18:16.840Z,61.84
2019-01-24T11:19:16.706Z,61.55
2019-01-24T11:20:16.571Z,61.65
2019-01-24T11:21:16.437Z,61.55
2019-01-24T11:22:16.302Z,62.59
2019-01-24T11:23:16.169Z,62.88
2019-01-24T11:24:16.036Z,63.00
2019-01-24T11:25:15.902Z,62.59
2019-01-24T11:26:15.766Z,62.02
2019-01-24T11:27:15.631Z,63.07
2019-01-24T11:28:15.512Z,63.45
2019-01-24T11:29:15.362Z,64.01
2019-01-24T11:30:15.227Z,64.58
2019-01-24T11:31:15.097Z,65.23
2019-01-24T11:32:14.958Z,65.33
2019-01-24T11:33:14.825Z,64.51
2019-01-24T11:34:15.932Z,63.26
2019-01-24T11:35:14.556Z,63.63
2019-01-24T11:36:14.421Z,63.54
2019-01-24T11:37:14.287Z,63.92
2019-01-24T11:38:14.151Z,63.82
2019-01-24T11:39:14.016Z,64.58
2019-01-24T11:40:13.885Z,64.39
2019-01-24T11:41:13.763Z,64.48
2019-01-24T11:42:13.613Z,64.58
2019-01-24T11:43:13.478Z,64.48
2019-01-24T11:44:13.343Z,65.42
2019-01-24T11:45:13.207Z,65.99
2019-01-24T11:46:13.072Z,66.65
2019-01-24T11:47:12.938Z,65.90
2019-01-24T11:48:12.804Z,64.95
2019-01-24T11:49:12.671Z,64.76
2019-01-24T11:50:12.531Z,65.42
2019-01-24T11:51:12.404Z,65.71
2019-01-24T11:52:12.263Z,64.95
2019-01-24T11:53:12.128Z,63.92
2019-01-24T11:54:11.992Z,64.01
2019-01-24T11:55:11.858Z,65.23
2019-01-24T11:56:11.726Z,65.14
2019-01-24T11:57:11.591Z,65.14
2019-01-24T11:58:11.453Z,65.52
2019-01-24T11:59:11.326Z,66.24
2019-01-24T12:00:11.184Z,65.86
2019-01-24T12:01:11.050Z,66.05
2019-01-24T12:02:10.914Z,66.43
2019-01-24T12:03:10.781Z,68.23
2019-01-24T12:04:10.648Z,68.13
2019-01-24T12:05:10.513Z,67.66
2019-01-24T12:06:10.374Z,67.28
2019-01-24T12:07:10.240Z,67.47
2019-01-24T12:08:10.106Z,66.84
2019-01-24T12:09:09.969Z,66.75
2019-01-24T12:10:09.834Z,66.24
2019-01-24T12:11:09.697Z,66.94
2019-01-24T12:12:09.563Z,66.65
2019-01-24T12:13:09.428Z,66.56
2019-01-24T12:14:09.290Z,65.86
2019-01-24T12:15:09.160Z,66.75
2019-01-24T12:16:09.026Z,66.56
2019-01-24T12:17:08.887Z,66.84
2019-01-24T12:18:08.751Z,66.47
2019-01-24T12:19:08.616Z,65.71
2019-01-24T12:20:08.487Z,65.23
2019-01-24T12:21:08.344Z,65.71
2019-01-24T12:22:08.216Z,66.56
2019-01-24T12:23:08.074Z,65.80
2019-01-24T12:24:07.942Z,65.61
2019-01-24T12:25:07.805Z,65.80
2019-01-24T12:26:07.669Z,65.52
2019-01-24T12:27:07.535Z,65.14
2019-01-24T12:28:07.399Z,64.58
2019-01-24T12:29:07.264Z,64.67
2019-01-24T12:30:07.128Z,64.67
2019-01-24T12:31:06.995Z,64.39
2019-01-24T12:32:06.868Z,64.48
2019-01-24T12:33:06.726Z,64.39
2019-01-24T12:34:06.591Z,64.39
2019-01-24T12:35:06.456Z,65.05
2019-01-24T12:36:06.319Z,65.23
2019-01-24T12:37:11.326Z,64.48
2019-01-24T12:38:06.063Z,64.11
2019-01-24T12:39:05.917Z,64.58
2019-01-24T12:40:05.783Z,63.73
2019-01-24T12:41:05.649Z,63.82
2019-01-24T12:42:05.512Z,65.23
2019-01-24T12:43:05.382Z,65.71
2019-01-24T12:44:05.244Z,66.94
2019-01-24T12:45:05.109Z,67.32
2019-01-24T12:46:04.979Z,66.75
2019-01-24T12:47:04.839Z,65.74
2019-01-24T12:48:04.706Z,64.79
2019-01-24T12:49:04.577Z,64.61
2019-01-24T12:50:04.439Z,64.04
2019-01-24T12:51:04.300Z,63.57
2019-01-24T12:52:04.169Z,63.57
2019-01-24T12:53:04.031Z,63.48
2019-01-24T12:54:03.897Z,63.48
2019-01-24T12:55:03.762Z,63.76
2019-01-24T12:56:03.626Z,64.04
2019-01-24T12:57:03.492Z,63.76
2019-01-24T12:58:03.356Z,63.19
2019-01-24T12:59:03.223Z,63.00
2019-01-24T13:00:03.091Z,62.25
2019-01-24T13:01:02.957Z,63.19
2019-01-24T13:02:02.819Z,62.81
2019-01-24T13:03:02.685Z,63.29
2019-01-24T13:04:02.556Z,63.00
2019-01-24T13:05:02.421Z,63.19
2019-01-24T13:06:02.282Z,63.67
2019-01-24T13:07:02.147Z,63.26
2019-01-24T13:08:02.015Z,63.76
2019-01-24T13:09:01.882Z,64.23
2019-01-24T13:10:01.747Z,64.14
2019-01-24T13:11:01.610Z,64.32